Station: Tarcoola

  Atmospheric Gas Attenuation - ITU Rec 676-11   --------------- db/100km ---------------
Date Time Temp RH % AH g/m3 Dew Point Wind Direction Speed kph Gust kph Barometer mB Rainfall Since 9am 24GHz 47GHz 76GHz 122GHz 134GHz 241GHz
21 19:10 18.4 40 6.29 4.6 24 32 1013.9 0 14.5 21.2 29.3 76.4 65.4 223.2
21 19:00 18.5 40 6.33 4.7 30 41 1013.5 0 14.6 21.3 29.4 76.6 65.7 224.5
21 18:50 18.6 39 6.21 4.4 26 32 1013.5 0 14.3 21.1 28.9 75.4 64.3 219.4
21 18:40 18.8 39 6.28 4.6 32 35 1013.3 0 14.5 21.1 29.1 75.8 64.9 221.6
21 18:30 19 39 6.35 4.7 30 43 1012.9 0 14.6 21.2 29.2 76.3 65.5 223.8
21 18:20 19.4 36 6.01 4 32 41 1012.9 0 13.9 20.6 27.9 72.8 61.4 209.3
21 18:10 20.1 30 5.21 2 37 44 1012.6 0 12.2 19.4 25.1 65.2 52.2 177.0
21 18:00 20.3 30 5.28 2.2 33 48 1012.1 0 12.3 19.4 25.2 65.6 52.8 179.2
21 17:50 20.5 28 4.98 1.4 33 39 1012.1 0 11.7 19.0 24.2 62.9 49.5 167.6
21 17:40 20.5 28 4.98 1.4 37 46 1012 0 11.7 19.0 24.2 62.8 49.5 167.6
21 17:30 20.7 27 4.86 1.1 32 46 1011.6 0 11.4 18.8 23.7 61.7 48.1 162.7
21 17:20 21 27 4.95 1.3 37 41 1011.6 0 11.6 18.8 23.9 62.2 48.8 165.4
21 17:10 21.3 26 4.85 1 35 54 1011.3 0 11.4 18.6 23.5 61.1 47.6 161.1
21 17:00 21.6 26 4.93 1.3 37 50 1011.2 0 11.6 18.7 23.7 61.5 48.2 163.4
21 16:50 21.4 28 5.25 2.2 33 44 1011.3 0 12.2 19.1 24.8 64.4 51.7 175.6
21 16:40 21.2 27 5 1.5 37 44 1011.1 0 11.7 18.8 24.0 62.4 49.2 166.8
21 16:30 21.6 27 5.12 1.8 39 52 1010.6 0 11.9 18.9 24.3 63.1 50.2 170.3
21 16:20 21.6 26 4.93 1.3 48 56 1010.7 0 11.6 18.7 23.7 61.5 48.2 163.4
21 16:10 21.8 27 5.18 2 32 43 1010.6 0 12.1 18.9 24.4 63.5 50.7 172.1
21 16:00 22.3 26 5.13 1.9 37 56 1010.3 0 11.9 18.8 24.1 62.6 49.9 169.2
21 15:50 21.3 27 5.03 1.6 39 46 1010.6 0 11.8 18.8 24.1 62.6 49.4 167.6
21 15:40 22 27 5.24 2.2 32 35 1010.5 0 12.2 19.0 24.5 63.8 51.2 173.8
21 15:30 22.7 26 5.25 2.2 33 48 1010.2 0 12.2 18.8 24.4 63.3 50.8 172.7
21 15:20 22.2 26 5.1 1.8 37 44 1010.5 0 11.9 18.7 24.0 62.5 49.6 168.3
21 15:10 22.7 25 5.05 1.7 39 48 1010.6 0 11.8 18.6 23.7 61.7 48.8 165.5
21 15:00 22.8 25 5.08 1.8 35 63 1010.3 0 11.8 18.6 23.8 61.8 49.0 166.4
21 14:50 22.5 25 4.99 1.5 33 41 1010.5 0 11.6 18.5 23.6 61.3 48.3 163.8
21 14:40 23 25 5.14 1.9 30 39 1010.5 0 11.9 18.6 23.9 62.2 49.5 168.2
21 14:30 22.9 24 4.9 1.3 33 46 1010.4 0 11.4 18.4 23.2 60.3 47.2 159.8
21 14:20 22.4 24 4.77 0.9 43 50 1010.7 0 11.2 18.3 23.0 59.6 46.1 156.1
21 14:10 22.5 24 4.79 0.9 39 44 1010.8 0 11.2 18.3 23.0 59.7 46.3 156.6
21 14:00 22.3 24 4.74 0.8 35 52 1010.6 0 11.1 18.3 22.9 59.4 45.9 155.2
21 13:50 22.4 25 4.96 1.4 35 48 1010.9 0 11.6 18.5 23.6 61.2 48.1 162.9
21 13:40 22.2 24 4.71 0.7 41 46 1010.9 0 11.1 18.3 22.8 59.3 45.6 154.3
21 13:30 22.2 24 4.71 0.7 30 44 1010.8 0 11.1 18.3 22.8 59.3 45.6 154.3
21 13:20 21.9 25 4.82 1 39 46 1011 0 11.3 18.5 23.3 60.4 46.9 158.9
21 13:10 21.8 25 4.8 0.9 33 37 1011.1 0 11.3 18.5 23.2 60.3 46.8 158.3
21 13:00 21.7 25 4.77 0.8 35 48 1011 0 11.2 18.4 23.2 60.1 46.5 157.4
21 12:50 21.7 24 4.58 0.3 37 44 1011.2 0 10.8 18.2 22.6 58.6 44.6 150.6
21 12:40 21.9 24 4.63 0.4 28 37 1011.3 0 10.9 18.2 22.7 58.9 45.0 152.1
21 12:30 21.3 25 4.66 0.5 33 46 1011.2 0 11.0 18.4 22.9 59.5 45.6 154.2
21 12:20 21.1 25 4.61 0.3 32 39 1011.4 0 10.9 18.4 22.9 59.3 45.2 152.8
21 12:10 21.5 24 4.53 0.1 35 44 1011.4 0 10.7 18.2 22.5 58.3 44.2 149.2
21 12:00 21.1 25 4.61 0.3 32 44 1011.4 0 10.9 18.4 22.9 59.3 45.2 152.8
21 11:50 20.5 25 4.45 -0.2 43 48 1011.7 0 10.6 18.3 22.5 58.4 43.9 148.2
21 11:40 21 25 4.58 0.2 30 35 1011.8 0 10.8 18.4 22.8 59.1 45.0 152.0
21 11:30 20.5 25 4.45 -0.2 32 48 1011.7 0 10.6 18.3 22.5 58.4 43.9 148.2
21 11:20 20.4 26 4.6 0.3 37 46 1011.8 0 10.9 18.5 23.0 59.7 45.5 153.8
21 11:10 20.1 26 4.52 0 37 43 1011.9 0 10.7 18.5 22.9 59.3 44.9 151.4
21 11:00 20.4 27 4.78 0.8 33 46 1011.8 0 11.3 18.7 23.6 61.2 47.4 160.4
21 10:50 19.9 27 4.64 0.4 33 41 1012 0 11.0 18.7 23.3 60.4 46.3 156.2
21 10:40 19.3 26 4.31 -0.7 33 39 1012.1 0 10.3 18.4 22.4 58.1 43.1 145.2
21 10:30 19.1 27 4.43 -0.3 35 46 1011.9 0 10.6 18.5 22.8 59.2 44.5 149.9
21 10:20 18.7 27 4.32 -0.7 37 43 1012.2 0 10.4 18.5 22.6 58.6 43.6 146.6
21 10:10 19 28 4.56 0.1 26 35 1012.2 0 10.9 18.7 23.3 60.4 45.9 155.0
21 10:00 18.5 29 4.59 0.2 32 44 1012 0 10.9 18.9 23.5 61.0 46.5 157.0
21 09:50 18.3 30 4.69 0.4 22 26 1012.2 0 11.1 19.0 23.9 62.0 47.7 161.1
21 09:40 18 31 4.76 0.6 22 33 1012.1 0 11.3 19.2 24.2 62.9 48.6 164.3
21 09:30 17.6 30 4.5 -0.2 30 39 1012 0 10.8 18.9 23.5 60.9 46.1 155.3
21 09:20 17.4 31 4.59 0.1 24 30 1012.2 0 11.0 19.1 23.8 61.8 47.2 159.1
21 09:10 17.2 31 4.54 -0.1 26 30 1012.2 0 10.9 19.1 23.7 61.6 46.7 157.6
21 09:00 16.8 30 4.29 -0.9 32 43 1012 0 10.4 18.8 23.0 59.7 44.3 148.9
21 08:50 16.7 31 4.41 -0.5 28 33 1012.2 0 10.6 19.0 23.5 60.8 45.6 153.6
21 08:40 16.5 31 4.35 -0.7 28 30 1012.1 0 10.5 19.0 23.3 60.4 45.1 151.7
21 08:30 15.9 32 4.33 -0.8 28 41 1011.8 0 10.5 19.0 23.4 60.7 45.2 152.0
21 08:20 15.6 33 4.39 -0.6 32 37 1012 0 10.6 19.2 23.7 61.4 46.0 154.9
21 08:10 15.3 34 4.44 -0.4 26 28 1012 0 10.7 19.3 23.9 62.1 46.7 157.3
21 08:00 15.1 37 4.77 0.5 22 28 1011.7 0 11.4 19.8 25.1 65.2 50.5 170.5
21 07:50 14.6 40 5.01 1.2 20 22 1011.9 0 11.9 20.2 26.1 67.8 53.5 181.1
21 07:40 13.8 49 5.84 3.3 17 19 1011.9 0 13.7 21.6 29.2 76.3 63.7 216.9
21 07:30 13 57 6.46 4.7 15 20 1011.6 0 15.1 22.7 31.8 83.1 71.9 245.4
21 07:20 12.2 62 6.69 5.1 17 20 1011.7 0 15.6 23.3 33.0 86.3 75.5 258.0
21 07:10 11.4 69 7.08 5.9 15 19 1011.6 0 16.4 24.1 34.8 91.2 81.2 278.0
21 07:00 11 70 7.01 5.7 19 20 1011.3 0 16.3 24.1 34.7 90.9 80.7 276.2
21 06:50 10.6 73 7.13 6 17 20 1011.4 0 16.6 24.4 35.4 92.6 82.7 283.1
21 06:40 10.2 75 7.14 6 17 19 1011.4 0 16.6 24.5 35.6 93.2 83.2 285.0
21 06:30 9.8 78 7.24 6.2 15 17 1011.1 0 16.9 24.7 36.2 94.7 85.0 291.0
21 06:20 9.4 80 7.24 6.1 13 13 1011.3 0 16.9 24.9 36.3 95.2 85.4 292.5
21 06:10 9.4 81 7.33 6.3 15 15 1011.2 0 17.1 25.0 36.7 96.2 86.6 296.7
21 06:00 9.5 81 7.38 6.4 15 17 1010.9 0 17.2 25.1 36.8 96.6 87.2 298.6
21 05:50 9.4 82 7.42 6.5 13 15 1011 0 17.3 25.1 37.1 97.1 87.8 300.9
21 05:40 9.1 84 7.46 6.5 13 15 1010.9 0 17.4 25.3 37.4 97.9 88.7 303.9
21 05:30 9.2 85 7.59 6.8 13 15 1010.7 0 17.6 25.5 37.8 99.2 90.3 309.6
21 05:20 8.9 86 7.54 6.7 11 11 1010.9 0 17.5 25.5 37.8 99.1 90.0 308.4
21 05:10 8.6 86 7.39 6.4 7 9 1010.9 0 17.2 25.3 37.3 97.8 88.3 302.5
21 04:50 8.9 84 7.36 6.3 11 13 1010.7 0 17.2 25.2 37.0 97.1 87.6 299.9
21 04:40 9.3 82 7.37 6.4 11 11 1010.6 0 17.2 25.1 36.9 96.7 87.2 298.8
21 04:30 9.4 82 7.42 6.5 9 11 1010.3 0 17.3 25.1 37.0 97.1 87.8 300.7
21 04:20 9.5 83 7.56 6.8 9 11 1010.3 0 17.6 25.3 37.6 98.5 89.5 306.9
21 04:10 9.1 84 7.46 6.5 11 11 1010.2 0 17.4 25.3 37.3 97.9 88.6 303.7
21 04:00 9 83 7.32 6.3 9 11 1010 0 17.1 25.1 36.8 96.4 86.8 297.4
21 03:50 9.4 82 7.42 6.5 9 11 1010.1 0 17.3 25.1 37.0 97.0 87.7 300.6
21 03:40 9.6 81 7.42 6.5 11 13 1010.1 0 17.3 25.1 36.9 96.8 87.5 299.9
21 03:30 9.8 82 7.61 6.9 13 15 1009.8 0 17.7 25.3 37.6 98.6 89.8 307.9
21 03:20 9.6 83 7.61 6.9 13 13 1009.9 0 17.7 25.4 37.7 98.8 90.0 308.7
21 03:10 9.3 83 7.46 6.6 9 11 1009.8 0 17.4 25.2 37.2 97.6 88.4 302.8
21 03:00 9.2 83 7.41 6.5 9 11 1009.5 0 17.3 25.1 37.0 97.1 87.8 300.8
21 02:50 9.2 83 7.41 6.5 7 9 1009.7 0 17.3 25.1 37.1 97.1 87.8 300.8
21 02:40 9.2 84 7.5 6.6 9 9 1009.7 0 17.4 25.3 37.4 98.1 89.0 305.1
21 02:30 9.6 85 7.79 7.2 6 7 1009.6 0 18.1 25.6 38.4 100.8 92.5 317.2

Last Refresh: 21-Sep-2020 19:25:56

Most of the information presented on this site is sourced from the Bureau of Meteorology.  Copyright in all material sourced from the Bureau of Meteorology resides with the Commonwealth of Australia.